Time;durP1;ratioP1;P1;durP2;ratioP2;P2;SDS_P1;SDS_P2;PMS_P1;PMS_P2;Temp;Humidity;BMP_temperature;BMP_pressure;BME280_temperature;BME280_humidity;BME280_pressure;Samples;Min_cycle;Max_cycle;Signal;HPM_P1;HPM_P2
2024/02/13 00:00:09;;;;;;;11.50;5.47;;;6.50;99.90;;;;;;2069029;28;20490;-73
2024/02/13 00:01:11;;;;;;;13.07;5.95;;;6.50;99.90;;;;;;2066183;28;20023;-72
2024/02/13 00:02:12;;;;;;;14.23;6.35;;;6.60;99.90;;;;;;2075171;28;20022;-71
2024/02/13 00:03:15;;;;;;;16.63;5.78;;;6.50;99.90;;;;;;2075819;28;20037;-73
2024/02/13 00:04:16;;;;;;;11.07;5.72;;;6.60;99.90;;;;;;2075185;28;20557;-73
2024/02/13 00:05:17;;;;;;;13.38;5.82;;;6.50;99.90;;;;;;2076534;28;20084;-72
2024/02/13 00:06:17;;;;;;;9.82;5.30;;;6.60;99.90;;;;;;2072782;28;20029;-73
2024/02/13 00:07:18;;;;;;;12.00;5.53;;;6.50;99.90;;;;;;2074561;28;20045;-72
2024/02/13 00:08:18;;;;;;;11.55;5.28;;;6.60;99.90;;;;;;2076653;28;20098;-73
2024/02/13 00:09:19;;;;;;;14.50;5.90;;;6.60;99.90;;;;;;2074617;28;20065;-73
2024/02/13 00:10:23;;;;;;;15.02;5.70;;;6.60;99.90;;;;;;2077674;28;20124;-73
2024/02/13 00:11:24;;;;;;;14.38;6.05;;;6.60;99.90;;;;;;2074017;28;20038;-71
2024/02/13 00:12:24;;;;;;;13.52;6.05;;;6.60;99.90;;;;;;2075361;28;20045;-73
2024/02/13 00:13:25;;;;;;;16.58;6.43;;;6.60;99.90;;;;;;2077179;28;20024;-73
2024/02/13 00:14:25;;;;;;;12.02;5.65;;;6.60;99.90;;;;;;2078755;28;20059;-73
2024/02/13 00:15:26;;;;;;;15.02;7.60;;;6.60;99.90;;;;;;2076681;28;20018;-73
2024/02/13 00:16:26;;;;;;;12.43;6.30;;;6.60;99.90;;;;;;2077313;28;20038;-72
2024/02/13 00:17:28;;;;;;;15.60;6.25;;;6.60;99.90;;;;;;2076722;28;20075;-73
2024/02/13 00:18:33;;;;;;;12.35;6.63;;;6.60;99.90;;;;;;2068385;28;20092;-72
2024/02/13 00:19:33;;;;;;;14.02;6.20;;;6.60;99.90;;;;;;2067544;28;20033;-73
2024/02/13 00:20:34;;;;;;;18.25;6.95;;;6.60;99.90;;;;;;2075958;28;20556;-72
2024/02/13 00:21:34;;;;;;;15.25;8.15;;;6.60;99.90;;;;;;2074890;28;20025;-73
2024/02/13 00:22:38;;;;;;;14.75;7.15;;;6.60;99.90;;;;;;2074288;28;20108;-72
2024/02/13 00:23:39;;;;;;;14.48;6.93;;;6.60;99.90;;;;;;2075369;28;20091;-73
2024/02/13 00:24:40;;;;;;;16.80;7.75;;;6.50;99.90;;;;;;2075847;28;20034;-72
2024/02/13 00:25:41;;;;;;;18.77;6.82;;;6.50;99.90;;;;;;2077082;28;20083;-73
2024/02/13 00:26:43;;;;;;;19.70;7.72;;;6.50;99.90;;;;;;2074368;28;20071;-73
2024/02/13 00:27:44;;;;;;;15.40;6.75;;;6.50;99.90;;;;;;2072766;28;20065;-73
2024/02/13 00:28:46;;;;;;;18.05;8.25;;;6.50;99.90;;;;;;2076544;28;20067;-73
2024/02/13 00:29:49;;;;;;;14.30;8.20;;;6.50;99.90;;;;;;2065650;28;20391;-73
2024/02/13 00:30:50;;;;;;;14.57;7.28;;;6.50;99.90;;;;;;2068999;28;20058;-73
2024/02/13 00:31:50;;;;;;;12.02;7.35;;;6.50;99.90;;;;;;2075805;28;20034;-73
2024/02/13 00:32:51;;;;;;;14.23;7.65;;;6.50;99.90;;;;;;2076601;28;20044;-73
2024/02/13 00:33:53;;;;;;;15.35;8.13;;;6.50;99.90;;;;;;2075470;28;20471;-73
2024/02/13 00:34:55;;;;;;;19.27;9.02;;;6.50;99.90;;;;;;2076766;28;20485;-73
2024/02/13 00:35:56;;;;;;;15.25;8.57;;;6.50;99.90;;;;;;2076747;28;20109;-73
2024/02/13 00:37:00;;;;;;;19.05;9.40;;;6.50;99.90;;;;;;2075303;28;20018;-73
2024/02/13 00:38:01;;;;;;;21.67;8.70;;;6.50;99.90;;;;;;2075416;28;20074;-73
2024/02/13 00:39:02;;;;;;;14.90;7.90;;;6.50;99.90;;;;;;2077176;28;20030;-72
2024/02/13 00:40:09;;;;;;;19.70;9.95;;;6.50;99.90;;;;;;2074784;28;20022;-73
2024/02/13 00:41:10;;;;;;;18.27;8.95;;;6.50;99.90;;;;;;2076299;28;20025;-73
2024/02/13 00:42:10;;;;;;;14.77;8.50;;;6.50;99.90;;;;;;2077921;28;20032;-72
2024/02/13 00:43:17;;;;;;;23.75;9.80;;;6.50;99.90;;;;;;2075809;28;20034;-71
2024/02/13 00:44:17;;;;;;;21.50;9.77;;;6.50;99.90;;;;;;2071215;28;20030;-73
2024/02/13 00:45:18;;;;;;;16.10;9.57;;;6.40;99.90;;;;;;2068839;28;20034;-71
2024/02/13 00:46:19;;;;;;;18.52;9.88;;;6.40;99.90;;;;;;2074703;28;20036;-73
2024/02/13 00:47:19;;;;;;;18.98;9.45;;;6.40;99.90;;;;;;2074891;28;20030;-73
2024/02/13 00:48:20;;;;;;;15.43;9.85;;;6.40;99.90;;;;;;2073726;28;20026;-73
2024/02/13 00:49:21;;;;;;;15.25;10.23;;;6.40;99.90;;;;;;2077665;28;20168;-73
2024/02/13 00:50:21;;;;;;;19.88;10.75;;;6.40;99.90;;;;;;2075454;28;20026;-73
2024/02/13 00:51:22;;;;;;;16.88;9.98;;;6.40;99.90;;;;;;2067535;28;20069;-73
2024/02/13 00:52:25;;;;;;;15.73;9.77;;;6.40;99.90;;;;;;2070200;28;20479;-73
2024/02/13 00:53:25;;;;;;;18.17;9.75;;;6.40;99.90;;;;;;2075605;28;20018;-73
2024/02/13 00:54:26;;;;;;;22.25;10.35;;;6.40;99.90;;;;;;2077054;28;20502;-73
2024/02/13 00:55:27;;;;;;;22.40;10.73;;;6.40;99.90;;;;;;2075740;28;20057;-72
2024/02/13 00:56:27;;;;;;;25.80;11.25;;;6.40;99.90;;;;;;2075467;28;20030;-72
2024/02/13 00:57:28;;;;;;;18.77;9.95;;;6.40;99.90;;;;;;2075531;28;20545;-72
2024/02/13 00:58:36;;;;;;;15.43;10.68;;;6.40;99.90;;;;;;2067017;28;20112;-75
2024/02/13 00:59:40;;;;;;;18.08;10.57;;;6.40;99.90;;;;;;2068828;28;20391;-72
2024/02/13 01:00:40;;;;;;;19.13;11.05;;;6.40;99.90;;;;;;2074947;28;20073;-73
2024/02/13 01:01:41;;;;;;;26.25;12.68;;;6.40;99.90;;;;;;2076173;28;20030;-73
2024/02/13 01:02:41;;;;;;;19.83;11.98;;;6.40;99.90;;;;;;2075688;28;20028;-73
2024/02/13 01:03:42;;;;;;;20.05;11.48;;;6.40;99.90;;;;;;2076327;28;20153;-73
2024/02/13 01:04:42;;;;;;;19.63;11.65;;;6.50;99.90;;;;;;2074852;28;20026;-72
2024/02/13 01:05:43;;;;;;;20.00;12.70;;;6.50;99.90;;;;;;2075181;28;20044;-72
2024/02/13 01:06:43;;;;;;;18.85;12.18;;;6.40;99.90;;;;;;2076122;28;20553;-72
2024/02/13 01:07:45;;;;;;;25.40;13.45;;;6.50;99.90;;;;;;2074878;28;20052;-72
2024/02/13 01:08:46;;;;;;;23.83;13.05;;;6.50;99.90;;;;;;2075860;28;20049;-72
2024/02/13 01:09:47;;;;;;;20.25;12.48;;;6.50;99.90;;;;;;2077070;28;20117;-73
2024/02/13 01:10:47;;;;;;;21.17;12.70;;;6.40;99.90;;;;;;2077547;28;20541;-74
2024/02/13 01:11:48;;;;;;;20.55;12.55;;;6.50;99.90;;;;;;2077521;28;20439;-73
2024/02/13 01:12:50;;;;;;;19.85;13.32;;;6.40;99.90;;;;;;2066607;28;20089;-73
2024/02/13 01:13:51;;;;;;;23.10;12.90;;;6.50;99.90;;;;;;2067925;28;20048;-72
2024/02/13 01:14:52;;;;;;;19.45;13.20;;;6.50;99.90;;;;;;2076527;28;20538;-73
2024/02/13 01:15:52;;;;;;;21.15;12.50;;;6.50;99.90;;;;;;2076109;28;20487;-72
2024/02/13 01:16:53;;;;;;;19.25;13.13;;;6.50;99.90;;;;;;2066329;28;20367;-73
2024/02/13 01:17:59;;;;;;;24.80;13.93;;;6.50;99.90;;;;;;2069019;28;20030;-73
2024/02/13 01:19:00;;;;;;;26.25;13.48;;;6.50;99.90;;;;;;2076802;28;20029;-73
2024/02/13 01:20:00;;;;;;;19.92;12.80;;;6.50;99.90;;;;;;2078040;28;20022;-72
2024/02/13 01:21:02;;;;;;;21.92;13.98;;;6.50;99.90;;;;;;2075197;28;20109;-72
2024/02/13 01:22:03;;;;;;;18.92;12.65;;;6.50;99.90;;;;;;2075377;28;20037;-72
2024/02/13 01:23:03;;;;;;;18.83;13.35;;;6.40;99.90;;;;;;2075161;28;20022;-72
2024/02/13 01:24:04;;;;;;;20.67;12.32;;;6.50;99.90;;;;;;2070712;28;20018;-72
2024/02/13 01:25:05;;;;;;;19.75;12.57;;;6.50;99.90;;;;;;2068811;28;20056;-72
2024/02/13 01:26:06;;;;;;;18.67;12.65;;;6.50;99.90;;;;;;2076437;28;20109;-73
2024/02/13 01:27:06;;;;;;;21.02;13.55;;;6.40;99.90;;;;;;2075099;28;20030;-73
2024/02/13 01:28:10;;;;;;;21.05;13.85;;;6.40;99.90;;;;;;2074281;28;20038;-71
2024/02/13 01:29:14;;;;;;;21.20;13.07;;;6.40;99.90;;;;;;2075757;28;20021;-72
2024/02/13 01:30:15;;;;;;;22.17;12.60;;;6.40;99.90;;;;;;2076926;28;20385;-73
2024/02/13 01:31:16;;;;;;;17.40;12.48;;;6.40;99.90;;;;;;2076395;28;20049;-73
2024/02/13 01:32:17;;;;;;;21.90;13.27;;;6.40;99.90;;;;;;2076112;28;20389;-73
2024/02/13 01:33:18;;;;;;;24.50;14.20;;;6.40;99.90;;;;;;2072891;28;20112;-73
2024/02/13 01:34:18;;;;;;;25.17;13.57;;;6.40;99.90;;;;;;2078406;28;20030;-72
2024/02/13 01:35:19;;;;;;;22.27;14.25;;;6.40;99.90;;;;;;2077560;28;20509;-72
2024/02/13 01:36:19;;;;;;;19.40;12.90;;;6.40;99.90;;;;;;2076540;28;20029;-73
2024/02/13 01:37:20;;;;;;;21.42;13.48;;;6.40;99.90;;;;;;2075672;28;20038;-73
2024/02/13 01:38:20;;;;;;;24.27;12.52;;;6.40;99.90;;;;;;2075305;28;20041;-72
2024/02/13 01:39:24;;;;;;;20.45;11.48;;;6.30;99.90;;;;;;2075110;28;20105;-73
2024/02/13 01:40:24;;;;;;;18.70;12.65;;;6.40;99.90;;;;;;2075930;28;20526;-73
2024/02/13 01:41:25;;;;;;;14.75;10.38;;;6.40;99.90;;;;;;2078384;28;20691;-73
2024/02/13 01:42:26;;;;;;;17.55;11.25;;;6.40;99.90;;;;;;2077714;28;20460;-72
2024/02/13 01:43:29;;;;;;;19.35;11.18;;;6.40;99.90;;;;;;2076759;28;20026;-73
2024/02/13 01:44:29;;;;;;;16.15;10.60;;;6.30;99.90;;;;;;2075419;28;20357;-73
2024/02/13 01:45:30;;;;;;;18.25;12.15;;;6.30;99.90;;;;;;2076303;28;20053;-73
2024/02/13 01:46:31;;;;;;;17.13;12.10;;;6.30;99.90;;;;;;2077640;28;20530;-74
2024/02/13 01:47:31;;;;;;;21.70;13.60;;;6.30;99.90;;;;;;2076511;28;20021;-71
2024/02/13 01:48:33;;;;;;;24.50;13.63;;;6.30;99.90;;;;;;2077299;28;20025;-71
2024/02/13 01:49:34;;;;;;;22.35;13.27;;;6.30;99.90;;;;;;2077937;28;20025;-73
2024/02/13 01:50:37;;;;;;;18.55;12.02;;;6.30;99.90;;;;;;2076763;28;20494;-73
2024/02/13 01:51:39;;;;;;;24.35;13.57;;;6.20;99.90;;;;;;2075265;28;20457;-70
2024/02/13 01:52:42;;;;;;;21.65;13.43;;;6.30;99.90;;;;;;2077209;28;20029;-73
2024/02/13 01:53:43;;;;;;;23.30;14.43;;;6.20;99.90;;;;;;2069051;28;20496;-73
2024/02/13 01:54:45;;;;;;;26.42;14.32;;;6.20;99.90;;;;;;2069127;28;20030;-73
2024/02/13 01:55:48;;;;;;;17.25;12.68;;;6.20;99.90;;;;;;2075800;28;20348;-73
2024/02/13 01:56:49;;;;;;;24.02;13.40;;;6.20;99.90;;;;;;2077827;28;20033;-73
2024/02/13 01:57:52;;;;;;;25.10;14.15;;;6.10;99.90;;;;;;2075563;28;20034;-73
2024/02/13 01:58:53;;;;;;;20.08;14.73;;;6.20;99.90;;;;;;2077232;28;20116;-71
2024/02/13 01:59:53;;;;;;;24.35;14.85;;;6.20;99.90;;;;;;2079254;28;20033;-72
2024/02/13 02:00:59;;;;;;;21.83;15.32;;;6.10;99.90;;;;;;2076817;28;20401;-73
2024/02/13 02:02:00;;;;;;;25.08;15.25;;;6.10;99.90;;;;;;2075905;28;20030;-73
2024/02/13 02:03:03;;;;;;;29.15;16.50;;;6.10;99.90;;;;;;2076232;28;20104;-72
2024/02/13 02:04:05;;;;;;;29.38;14.85;;;6.10;99.90;;;;;;2077654;28;20067;-73
2024/02/13 02:05:10;;;;;;;21.90;13.98;;;6.10;99.90;;;;;;2076388;28;20026;-72
2024/02/13 02:06:11;;;;;;;25.30;14.35;;;6.10;99.90;;;;;;2076933;28;20033;-73
2024/02/13 02:07:12;;;;;;;20.00;13.63;;;6.00;99.90;;;;;;2077444;28;20036;-72
2024/02/13 02:08:13;;;;;;;20.85;14.55;;;6.00;99.90;;;;;;2077159;28;20029;-72
2024/02/13 02:09:14;;;;;;;22.20;13.93;;;6.00;99.90;;;;;;2075861;28;20026;-73
2024/02/13 02:10:15;;;;;;;23.00;14.73;;;6.00;99.90;;;;;;2077924;28;20060;-72
2024/02/13 02:11:16;;;;;;;26.25;15.35;;;6.00;99.90;;;;;;2077983;28;20466;-73
2024/02/13 02:12:17;;;;;;;26.40;15.95;;;6.00;99.90;;;;;;2075120;28;20017;-72
2024/02/13 02:13:18;;;;;;;32.22;15.85;;;6.00;99.90;;;;;;2076559;28;20014;-73
2024/02/13 02:14:19;;;;;;;21.90;15.43;;;6.00;99.90;;;;;;2078685;28;20473;-72
2024/02/13 02:15:20;;;;;;;23.98;15.05;;;6.00;99.90;;;;;;2079033;28;20025;-74
2024/02/13 02:16:20;;;;;;;31.10;16.30;;;6.00;99.90;;;;;;2077018;28;20065;-72
2024/02/13 02:17:22;;;;;;;28.60;15.57;;;6.00;99.90;;;;;;2077094;28;20025;-73
2024/02/13 02:18:24;;;;;;;29.58;16.20;;;6.00;99.90;;;;;;2071112;28;20029;-73
2024/02/13 02:19:24;;;;;;;27.90;15.48;;;5.90;99.90;;;;;;2072081;28;20022;-72
2024/02/13 02:20:25;;;;;;;27.02;15.90;;;5.90;99.90;;;;;;2076971;28;20029;-72
2024/02/13 02:21:27;;;;;;;26.63;16.98;;;5.90;99.90;;;;;;2076316;28;20032;-73
2024/02/13 02:22:27;;;;;;;28.85;16.85;;;5.90;99.90;;;;;;2077720;28;20099;-73
2024/02/13 02:23:28;;;;;;;32.28;16.33;;;5.90;99.90;;;;;;2078831;28;20056;-72
2024/02/13 02:24:31;;;;;;;27.30;16.58;;;5.90;99.90;;;;;;2074775;28;20109;-73
2024/02/13 02:25:31;;;;;;;27.20;16.45;;;5.90;99.90;;;;;;2076568;28;20065;-73
2024/02/13 02:26:32;;;;;;;26.40;16.27;;;5.90;99.90;;;;;;2078978;28;20529;-70
2024/02/13 02:27:34;;;;;;;27.30;16.65;;;5.90;99.90;;;;;;2078284;28;20041;-71
2024/02/13 02:28:35;;;;;;;25.35;15.63;;;5.90;99.90;;;;;;2076937;28;20029;-72
2024/02/13 02:29:37;;;;;;;26.63;15.13;;;5.90;99.90;;;;;;2076083;28;20028;-73
2024/02/13 02:30:37;;;;;;;27.80;15.80;;;5.90;99.90;;;;;;2075615;28;20030;-73
2024/02/13 02:31:38;;;;;;;24.33;15.60;;;5.90;99.90;;;;;;2077843;28;20052;-71
2024/02/13 02:32:39;;;;;;;24.48;16.13;;;5.90;99.90;;;;;;2077730;28;20075;-73
2024/02/13 02:33:39;;;;;;;26.83;15.48;;;5.90;99.90;;;;;;2075323;28;20018;-73
2024/02/13 02:34:40;;;;;;;28.95;15.38;;;5.90;99.90;;;;;;2075174;28;20430;-73
2024/02/13 02:35:41;;;;;;;24.13;15.57;;;5.90;99.90;;;;;;2076173;28;20014;-73
2024/02/13 02:36:42;;;;;;;26.30;16.10;;;5.90;99.90;;;;;;2075497;28;20049;-72
2024/02/13 02:37:47;;;;;;;24.30;15.75;;;5.90;99.90;;;;;;2075756;28;20447;-73
2024/02/13 02:38:48;;;;;;;23.02;15.82;;;5.90;99.90;;;;;;2077511;28;20039;-73
2024/02/13 02:39:48;;;;;;;22.23;15.20;;;5.90;99.90;;;;;;2076212;28;20475;-72
2024/02/13 02:40:49;;;;;;;22.52;14.85;;;5.80;99.90;;;;;;2076236;28;20500;-72
2024/02/13 02:41:50;;;;;;;23.60;15.70;;;5.80;99.90;;;;;;2076350;28;20028;-73
2024/02/13 02:42:52;;;;;;;26.45;15.40;;;5.80;99.90;;;;;;2077768;28;20036;-72
2024/02/13 02:43:53;;;;;;;27.95;15.57;;;5.90;99.90;;;;;;2077462;28;20048;-74
2024/02/13 02:44:53;;;;;;;22.55;15.70;;;5.80;99.90;;;;;;2077008;28;20502;-73
2024/02/13 02:45:54;;;;;;;27.42;15.77;;;5.80;99.90;;;;;;2076554;28;20459;-73
2024/02/13 02:46:54;;;;;;;28.55;17.23;;;5.90;99.90;;;;;;2078307;28;20041;-73
2024/02/13 02:47:56;;;;;;;20.73;15.02;;;5.90;99.90;;;;;;2077556;28;20132;-73
2024/02/13 02:48:58;;;;;;;22.77;15.82;;;5.80;99.90;;;;;;2075858;28;20462;-73
2024/02/13 02:49:58;;;;;;;21.27;15.63;;;5.90;99.90;;;;;;2078472;28;20381;-73
2024/02/13 02:50:59;;;;;;;28.02;15.95;;;5.80;99.90;;;;;;2076653;28;20104;-73
2024/02/13 02:51:59;;;;;;;21.35;15.57;;;5.90;99.90;;;;;;2077243;28;20039;-73
2024/02/13 02:53:00;;;;;;;19.58;14.07;;;5.80;99.90;;;;;;2077273;28;20428;-73
2024/02/13 02:54:01;;;;;;;24.27;15.50;;;5.90;99.90;;;;;;2078208;28;20040;-73
2024/02/13 02:55:01;;;;;;;29.17;16.13;;;5.90;99.90;;;;;;2076058;28;20060;-74
2024/02/13 02:56:02;;;;;;;21.65;15.52;;;5.90;99.90;;;;;;2078940;28;20025;-72
2024/02/13 02:57:06;;;;;;;26.65;16.25;;;5.80;99.90;;;;;;2075497;28;20033;-73
2024/02/13 02:58:08;;;;;;;26.83;15.80;;;5.80;99.90;;;;;;2074938;28;20029;-73
2024/02/13 02:59:09;;;;;;;24.02;16.13;;;5.90;99.90;;;;;;2076504;28;20021;-73
2024/02/13 03:00:12;;;;;;;23.52;16.30;;;5.80;99.90;;;;;;2075715;28;20101;-73
2024/02/13 03:01:13;;;;;;;23.63;15.93;;;5.90;99.90;;;;;;2067375;28;20040;-73
2024/02/13 03:02:14;;;;;;;23.90;16.65;;;5.90;99.90;;;;;;2067374;28;20037;-73
2024/02/13 03:03:15;;;;;;;21.55;15.63;;;5.90;99.90;;;;;;2076995;28;20112;-73
2024/02/13 03:04:16;;;;;;;24.42;16.23;;;5.90;99.90;;;;;;2073453;28;20022;-73
2024/02/13 03:05:17;;;;;;;26.25;16.17;;;5.90;99.90;;;;;;2075839;28;20509;-73
2024/02/13 03:06:18;;;;;;;24.83;16.50;;;5.90;99.90;;;;;;2076632;28;20914;-73
2024/02/13 03:07:18;;;;;;;25.90;15.80;;;5.90;99.90;;;;;;2075526;28;20030;-73
2024/02/13 03:08:19;;;;;;;27.33;16.15;;;5.90;99.90;;;;;;2077705;28;20108;-73
2024/02/13 03:09:20;;;;;;;23.92;15.70;;;5.90;99.90;;;;;;2075811;28;20033;-73
2024/02/13 03:10:21;;;;;;;26.92;15.75;;;5.90;99.90;;;;;;2077293;28;20029;-73
2024/02/13 03:11:21;;;;;;;27.15;16.80;;;5.90;99.90;;;;;;2075065;28;20128;-73
2024/02/13 03:12:22;;;;;;;30.25;17.05;;;5.90;99.90;;;;;;2075090;28;20036;-72
2024/02/13 03:13:23;;;;;;;22.45;15.80;;;5.90;99.90;;;;;;2076502;28;20040;-73
2024/02/13 03:14:23;;;;;;;24.92;16.60;;;5.90;99.90;;;;;;2074748;28;20514;-67
2024/02/13 03:15:27;;;;;;;27.65;16.70;;;5.90;99.90;;;;;;2077267;28;20485;-67
2024/02/13 03:16:29;;;;;;;23.95;16.63;;;5.90;99.90;;;;;;2076022;28;20052;-67
2024/02/13 03:17:31;;;;;;;26.45;16.42;;;5.90;99.90;;;;;;2075758;28;20123;-67
2024/02/13 03:18:32;;;;;;;25.23;16.55;;;5.90;99.90;;;;;;2076774;28;20033;-68
2024/02/13 03:19:33;;;;;;;22.17;15.23;;;6.00;99.90;;;;;;2076337;28;20116;-69
2024/02/13 03:20:33;;;;;;;27.00;16.40;;;6.00;99.90;;;;;;2077432;28;20094;-68
2024/02/13 03:21:35;;;;;;;22.63;16.05;;;5.90;99.90;;;;;;2078337;28;20017;-68
2024/02/13 03:22:37;;;;;;;19.98;15.38;;;5.90;99.90;;;;;;2077029;28;20422;-68
2024/02/13 03:23:38;;;;;;;24.08;16.23;;;6.00;99.90;;;;;;2076913;28;20033;-68
2024/02/13 03:24:38;;;;;;;28.10;16.42;;;5.90;99.90;;;;;;2074911;28;20025;-68
2024/02/13 03:25:39;;;;;;;23.35;15.63;;;6.00;99.90;;;;;;2075217;28;20068;-67
2024/02/13 03:26:39;;;;;;;23.88;15.45;;;6.00;99.90;;;;;;2075131;28;20055;-67
2024/02/13 03:27:41;;;;;;;22.15;15.35;;;6.00;99.90;;;;;;2075778;28;20033;-67
2024/02/13 03:28:41;;;;;;;27.17;17.00;;;6.00;99.90;;;;;;2077171;28;20022;-68
2024/02/13 03:29:42;;;;;;;25.50;15.30;;;5.90;99.90;;;;;;2078571;28;20032;-68
2024/02/13 03:30:43;;;;;;;22.30;15.82;;;6.00;99.90;;;;;;2074383;28;20080;-68
2024/02/13 03:31:44;;;;;;;19.90;14.82;;;5.90;99.90;;;;;;2078539;28;20474;-67
2024/02/13 03:32:44;;;;;;;23.85;16.08;;;5.90;99.90;;;;;;2077283;28;20129;-67
2024/02/13 03:33:45;;;;;;;27.50;17.05;;;6.00;99.90;;;;;;2076149;28;20372;-68
2024/02/13 03:34:46;;;;;;;27.98;15.60;;;5.90;99.90;;;;;;2070857;28;20483;-68
2024/02/13 03:35:48;;;;;;;17.90;14.70;;;5.90;99.90;;;;;;2070335;28;20026;-67
2024/02/13 03:36:49;;;;;;;20.25;15.23;;;6.00;99.90;;;;;;2076448;28;20025;-67
2024/02/13 03:37:50;;;;;;;22.38;15.52;;;6.00;99.90;;;;;;2076395;28;20037;-67
2024/02/13 03:38:53;;;;;;;24.27;14.43;;;5.90;99.90;;;;;;2069620;28;20136;-67
2024/02/13 03:39:53;;;;;;;23.95;15.07;;;5.90;99.90;;;;;;2073103;28;20037;-67
2024/02/13 03:40:56;;;;;;;25.58;15.95;;;5.90;99.90;;;;;;2073322;28;20108;-67
2024/02/13 03:41:56;;;;;;;20.65;15.15;;;5.90;99.90;;;;;;2077631;28;20465;-67
2024/02/13 03:42:57;;;;;;;24.55;14.80;;;6.00;99.90;;;;;;2074811;28;20472;-68
2024/02/13 03:43:57;;;;;;;22.67;14.60;;;5.90;99.90;;;;;;2075622;28;20020;-67
2024/02/13 03:44:58;;;;;;;23.80;14.90;;;6.00;99.90;;;;;;2076451;28;20414;-67
2024/02/13 03:45:58;;;;;;;19.98;14.57;;;5.90;99.90;;;;;;2077455;28;20026;-68
2024/02/13 03:46:59;;;;;;;24.35;15.15;;;6.00;99.90;;;;;;2074535;28;20034;-68
2024/02/13 03:48:00;;;;;;;22.48;14.57;;;5.90;99.90;;;;;;2075640;28;20112;-68
2024/02/13 03:49:00;;;;;;;23.23;15.18;;;6.00;99.90;;;;;;2074560;28;20022;-68
2024/02/13 03:50:02;;;;;;;19.95;14.00;;;5.90;99.90;;;;;;2076790;28;20038;-68
2024/02/13 03:51:06;;;;;;;23.25;15.63;;;6.00;99.90;;;;;;2074338;28;20107;-68
2024/02/13 03:52:06;;;;;;;23.23;15.02;;;6.00;99.90;;;;;;2075408;28;20021;-68
2024/02/13 03:53:07;;;;;;;22.75;14.73;;;5.90;99.90;;;;;;2067487;28;20124;-68
2024/02/13 03:54:08;;;;;;;22.92;15.35;;;6.00;99.90;;;;;;2069082;28;20025;-68
2024/02/13 03:55:09;;;;;;;25.73;16.20;;;5.90;99.90;;;;;;2069142;28;20371;-67
2024/02/13 03:56:09;;;;;;;27.02;15.70;;;5.90;99.90;;;;;;2070571;28;20116;-67
2024/02/13 03:57:11;;;;;;;21.65;16.08;;;5.90;99.90;;;;;;2074887;28;20030;-68
2024/02/13 03:58:12;;;;;;;22.75;15.18;;;5.90;99.90;;;;;;2078086;28;20148;-67
2024/02/13 03:59:13;;;;;;;21.77;15.07;;;5.90;99.90;;;;;;2077057;28;20044;-68
2024/02/13 04:00:14;;;;;;;20.52;14.60;;;5.90;99.90;;;;;;2076279;28;20045;-68
2024/02/13 04:01:14;;;;;;;21.88;15.02;;;5.90;99.90;;;;;;2076819;28;20014;-67
2024/02/13 04:02:15;;;;;;;24.20;15.80;;;5.90;99.90;;;;;;2075794;28;20633;-68
2024/02/13 04:03:16;;;;;;;24.40;15.98;;;5.90;99.90;;;;;;2075860;28;20017;-68
2024/02/13 04:04:16;;;;;;;25.15;15.50;;;5.90;99.90;;;;;;2077466;28;20033;-67
2024/02/13 04:05:17;;;;;;;23.92;16.58;;;5.90;99.90;;;;;;2077615;28;20456;-68
2024/02/13 04:06:18;;;;;;;23.17;15.75;;;5.90;99.90;;;;;;2077442;28;20523;-68
2024/02/13 04:07:18;;;;;;;23.35;15.35;;;5.90;99.90;;;;;;2070389;28;20061;-68
2024/02/13 04:08:19;;;;;;;25.55;15.38;;;5.90;99.90;;;;;;2070215;28;20022;-67
2024/02/13 04:09:19;;;;;;;22.90;14.95;;;6.00;99.90;;;;;;2077771;28;20425;-67
2024/02/13 04:10:20;;;;;;;21.58;15.20;;;6.00;99.90;;;;;;2075452;28;20143;-68
2024/02/13 04:11:20;;;;;;;22.83;15.35;;;5.90;99.90;;;;;;2077272;28;20474;-68
2024/02/13 04:12:21;;;;;;;23.33;14.77;;;6.00;99.90;;;;;;2078521;28;20021;-67
2024/02/13 04:13:22;;;;;;;19.42;14.60;;;5.90;99.90;;;;;;2075011;28;20033;-67
2024/02/13 04:14:23;;;;;;;21.88;15.02;;;5.90;99.90;;;;;;2077186;28;20025;-68
2024/02/13 04:15:24;;;;;;;22.58;15.75;;;5.90;99.90;;;;;;2078060;28;20033;-68
2024/02/13 04:16:24;;;;;;;21.33;15.10;;;5.90;99.90;;;;;;2074478;28;20513;-67
2024/02/13 04:17:25;;;;;;;24.63;15.48;;;5.90;99.90;;;;;;2076011;28;20087;-68
2024/02/13 04:18:26;;;;;;;19.70;15.98;;;5.90;99.90;;;;;;2075287;28;20029;-68
2024/02/13 04:19:27;;;;;;;22.17;16.05;;;5.90;99.90;;;;;;2074441;28;20390;-67
2024/02/13 04:20:27;;;;;;;22.67;15.32;;;5.90;99.90;;;;;;2075323;28;20491;-67
2024/02/13 04:21:28;;;;;;;25.38;16.30;;;5.90;99.90;;;;;;2078443;28;20456;-67
2024/02/13 04:22:29;;;;;;;26.10;16.50;;;6.00;99.90;;;;;;2072802;28;20029;-68
2024/02/13 04:23:30;;;;;;;24.48;17.33;;;5.90;99.90;;;;;;2075020;28;20030;-68
2024/02/13 04:24:30;;;;;;;25.05;17.10;;;5.90;99.90;;;;;;2073147;28;20363;-68
2024/02/13 04:25:31;;;;;;;31.17;17.10;;;6.00;99.90;;;;;;2074444;28;20041;-67
2024/02/13 04:26:31;;;;;;;27.50;16.77;;;6.00;99.90;;;;;;2077987;28;20486;-67
2024/02/13 04:27:32;;;;;;;23.50;17.15;;;5.90;99.90;;;;;;2074893;28;20398;-68
2024/02/13 04:28:32;;;;;;;23.55;16.27;;;5.90;99.90;;;;;;2077673;28;20038;-68
2024/02/13 04:29:33;;;;;;;27.33;17.60;;;6.00;99.90;;;;;;2069713;28;20061;-68
2024/02/13 04:30:40;;;;;;;26.35;17.40;;;5.90;99.90;;;;;;2070465;28;20053;-67
2024/02/13 04:31:42;;;;;;;22.05;17.20;;;5.90;99.90;;;;;;2078959;28;20017;-68
2024/02/13 04:32:43;;;;;;;25.95;17.17;;;5.90;99.90;;;;;;2066953;28;20117;-68
2024/02/13 04:33:44;;;;;;;24.80;18.25;;;5.90;99.90;;;;;;2068549;28;20495;-67
2024/02/13 04:34:45;;;;;;;25.23;17.40;;;5.90;99.90;;;;;;2075426;28;20443;-68
2024/02/13 04:35:47;;;;;;;23.85;17.52;;;5.90;99.90;;;;;;2076378;28;20034;-67
2024/02/13 04:36:47;;;;;;;24.98;16.38;;;5.90;99.90;;;;;;2077990;28;20030;-67
2024/02/13 04:37:50;;;;;;;27.88;17.85;;;5.90;99.90;;;;;;2074478;28;20033;-67
2024/02/13 04:38:51;;;;;;;28.38;18.95;;;6.00;99.90;;;;;;2065108;28;20046;-67
2024/02/13 04:39:52;;;;;;;23.20;17.05;;;6.00;99.90;;;;;;2067553;28;20522;-67
2024/02/13 04:40:53;;;;;;;27.08;18.23;;;5.90;99.90;;;;;;2074265;28;20485;-67
2024/02/13 04:41:53;;;;;;;28.60;18.58;;;5.90;99.90;;;;;;2075532;28;20053;-68
2024/02/13 04:42:54;;;;;;;23.98;18.05;;;5.90;99.90;;;;;;2075379;28;20044;-67
2024/02/13 04:43:55;;;;;;;26.38;18.83;;;6.00;99.90;;;;;;2076768;28;20037;-66
2024/02/13 04:44:55;;;;;;;29.25;19.85;;;5.90;99.90;;;;;;2078038;28;20033;-67
2024/02/13 04:45:56;;;;;;;27.48;18.15;;;5.90;99.90;;;;;;2075736;28;20070;-66
2024/02/13 04:46:56;;;;;;;26.15;17.75;;;6.00;99.90;;;;;;2076062;28;20022;-67
2024/02/13 04:47:58;;;;;;;26.83;19.50;;;5.90;99.90;;;;;;2075537;28;20120;-67
2024/02/13 04:48:59;;;;;;;27.35;18.23;;;5.90;99.90;;;;;;2074846;28;20551;-67
2024/02/13 04:50:03;;;;;;;28.95;19.13;;;5.90;99.90;;;;;;2077514;28;20036;-67
2024/02/13 04:51:06;;;;;;;28.25;18.05;;;5.90;99.90;;;;;;2076172;28;20139;-68
2024/02/13 04:52:09;;;;;;;26.85;18.83;;;6.00;99.90;;;;;;2077630;28;20030;-67
2024/02/13 04:53:09;;;;;;;26.02;19.00;;;5.90;99.90;;;;;;2075198;28;20081;-66
2024/02/13 04:54:10;;;;;;;28.27;18.27;;;5.90;99.90;;;;;;2077169;28;20104;-67
2024/02/13 04:55:10;;;;;;;28.25;19.20;;;6.00;99.90;;;;;;2073977;28;20021;-67
2024/02/13 04:56:11;;;;;;;27.77;18.55;;;5.90;99.90;;;;;;2074680;28;20026;-68
2024/02/13 04:57:11;;;;;;;32.10;19.88;;;5.90;99.90;;;;;;2074401;28;20422;-67
2024/02/13 04:58:17;;;;;;;28.92;19.55;;;5.90;99.90;;;;;;2074357;28;20026;-68
2024/02/13 04:59:21;;;;;;;29.70;18.70;;;5.90;99.90;;;;;;2075076;28;20053;-67
2024/02/13 05:00:24;;;;;;;25.55;18.40;;;6.00;99.90;;;;;;2075564;28;20100;-67
2024/02/13 05:01:25;;;;;;;29.30;18.30;;;6.00;99.90;;;;;;2075491;28;20022;-66
2024/02/13 05:02:28;;;;;;;33.78;19.23;;;6.00;99.90;;;;;;2076086;28;20026;-67
2024/02/13 05:03:39;;;;;;;24.17;18.83;;;5.90;99.90;;;;;;2075370;28;20037;-67
2024/02/13 05:07:21;;;;;;;29.85;19.23;;;5.90;99.90;;;;;;2076898;28;20941;-67
2024/02/13 05:08:21;;;;;;;28.85;18.88;;;5.90;99.90;;;;;;2075619;28;20125;-67
2024/02/13 05:09:23;;;;;;;26.25;18.65;;;5.90;99.90;;;;;;2076000;28;20233;-67
2024/02/13 05:10:24;;;;;;;26.88;18.63;;;5.90;99.90;;;;;;2076232;28;20018;-66
2024/02/13 05:11:28;;;;;;;27.90;19.75;;;5.90;99.90;;;;;;2074630;28;20049;-68
2024/02/13 05:12:28;;;;;;;28.25;20.98;;;5.90;99.90;;;;;;2076133;28;20033;-67
2024/02/13 05:13:31;;;;;;;23.73;18.25;;;5.90;99.90;;;;;;2075936;28;20709;-67
2024/02/13 05:14:31;;;;;;;25.10;18.38;;;5.90;99.90;;;;;;2075349;28;20021;-68
2024/02/13 05:15:32;;;;;;;24.83;18.35;;;5.90;99.90;;;;;;2075291;28;20032;-67
2024/02/13 05:16:33;;;;;;;26.92;19.63;;;5.90;99.90;;;;;;2076343;28;20411;-67
2024/02/13 05:17:35;;;;;;;31.50;20.80;;;5.90;99.90;;;;;;2070913;28;20034;-67